createdAt,value
2022-11-16T00:01:01.853Z,93.12
2022-11-16T00:03:32.450Z,92.83
2022-11-16T00:06:03.047Z,93.01
2022-11-16T00:08:33.140Z,93.02
2022-11-16T00:11:07.406Z,92.89
2022-11-16T00:13:36.346Z,92.33
2022-11-16T00:16:06.547Z,92.46
2022-11-16T00:18:36.460Z,92.66
2022-11-16T00:21:06.656Z,93.48
2022-11-16T00:23:38.523Z,93.88
2022-11-16T00:26:08.118Z,94.33
2022-11-16T00:28:36.915Z,94.77
2022-11-16T00:31:08.479Z,94.62
2022-11-16T00:33:38.437Z,94.30
2022-11-16T00:36:09.745Z,94.63
2022-11-16T00:38:38.597Z,94.60
2022-11-16T00:41:07.494Z,94.61
2022-11-16T00:43:36.612Z,92.90
2022-11-16T00:46:05.871Z,93.40
2022-11-16T00:48:34.707Z,93.60
2022-11-16T00:51:04.919Z,93.26
2022-11-16T00:53:34.173Z,92.72
2022-11-16T00:56:02.625Z,92.64
2022-11-16T00:58:33.844Z,92.53
2022-11-16T01:01:08.922Z,92.05
2022-11-16T01:03:37.982Z,92.05
2022-11-16T01:06:10.915Z,92.07
2022-11-16T01:08:41.284Z,92.10
2022-11-16T01:11:29.027Z,91.61
2022-11-16T01:14:03.323Z,91.41
2022-11-16T01:16:32.419Z,91.39
2022-11-16T01:19:01.222Z,91.66
2022-11-16T01:21:31.224Z,91.41
2022-11-16T01:23:59.540Z,91.63
2022-11-16T01:26:27.921Z,91.72
2022-11-16T01:28:56.301Z,92.30
2022-11-16T01:31:25.246Z,92.63
2022-11-16T01:33:54.917Z,93.04
2022-11-16T01:36:27.024Z,92.39
2022-11-16T01:38:58.737Z,93.46
2022-11-16T01:41:31.161Z,93.95
2022-11-16T01:44:05.519Z,94.11
2022-11-16T01:46:39.690Z,94.32
2022-11-16T01:49:15.973Z,94.63
2022-11-16T01:51:49.394Z,94.87
2022-11-16T01:54:19.157Z,95.06
2022-11-16T01:56:57.760Z,95.24
2022-11-16T01:59:34.226Z,95.49
2022-11-16T02:02:03.916Z,95.06
2022-11-16T02:04:32.923Z,95.00
2022-11-16T02:07:09.656Z,94.85
2022-11-16T02:09:58.980Z,94.88
2022-11-16T02:13:04.961Z,95.56
2022-11-16T02:15:46.205Z,95.35
2022-11-16T02:18:51.399Z,95.67
2022-11-16T02:21:42.628Z,95.75
2022-11-16T02:24:43.743Z,96.19
2022-11-16T02:28:07.131Z,96.92
2022-11-16T02:30:40.012Z,96.71
2022-11-16T02:33:13.286Z,97.04
2022-11-16T02:35:47.200Z,97.58
2022-11-16T02:38:21.454Z,98.03
2022-11-16T02:40:55.792Z,98.32
2022-11-16T02:43:33.423Z,97.97
2022-11-16T02:46:09.316Z,98.82
2022-11-16T02:48:42.095Z,99.23
2022-11-16T02:51:11.310Z,99.05
2022-11-16T02:53:47.447Z,99.77
2022-11-16T02:56:16.700Z,100.00
2022-11-16T02:58:45.263Z,100.00
2022-11-16T03:01:19.916Z,100.00
2022-11-16T03:03:54.969Z,100.00
2022-11-16T03:06:29.837Z,100.00
2022-11-16T03:09:02.298Z,100.00
2022-11-16T03:11:51.235Z,100.00
2022-11-16T03:14:23.890Z,100.00
2022-11-16T03:16:57.639Z,100.00
2022-11-16T03:19:35.226Z,100.00
2022-11-16T03:22:10.152Z,100.00
2022-11-16T03:24:40.582Z,100.00
2022-11-16T03:27:21.113Z,100.00
2022-11-16T03:30:01.961Z,100.00
2022-11-16T03:32:37.954Z,100.00
2022-11-16T03:35:16.401Z,100.00
2022-11-16T03:37:49.340Z,100.00
2022-11-16T03:40:19.621Z,100.00
2022-11-16T03:42:51.107Z,100.00
2022-11-16T03:45:20.875Z,100.00
2022-11-16T03:47:52.384Z,100.00
2022-11-16T03:50:21.911Z,100.00
2022-11-16T03:52:50.289Z,100.00
2022-11-16T03:55:19.677Z,100.00
2022-11-16T03:57:48.169Z,100.00
2022-11-16T04:00:17.072Z,100.00
2022-11-16T04:02:46.033Z,100.00
2022-11-16T04:05:40.501Z,100.00
2022-11-16T04:08:35.854Z,100.00
2022-11-16T04:11:22.695Z,100.00
2022-11-16T04:14:10.227Z,100.00
2022-11-16T04:16:58.998Z,100.00
2022-11-16T04:19:45.791Z,100.00
2022-11-16T04:22:38.911Z,100.00
2022-11-16T04:25:11.997Z,100.00
2022-11-16T04:27:57.643Z,100.00
2022-11-16T04:30:26.133Z,100.00
2022-11-16T04:33:12.194Z,100.00
2022-11-16T04:35:58.275Z,100.00
2022-11-16T04:38:27.856Z,100.00
2022-11-16T04:40:56.242Z,100.00
2022-11-16T04:43:24.252Z,100.00
2022-11-16T04:46:10.257Z,100.00
2022-11-16T04:48:41.249Z,100.00
2022-11-16T04:51:11.083Z,100.00
2022-11-16T04:53:41.643Z,100.00
2022-11-16T04:56:18.003Z,100.00
2022-11-16T04:58:46.808Z,100.00
2022-11-16T05:01:15.697Z,100.00
2022-11-16T05:03:45.243Z,100.00
2022-11-16T05:06:13.749Z,100.00
2022-11-16T05:08:43.532Z,100.00
2022-11-16T05:11:12.362Z,100.00
2022-11-16T05:13:41.089Z,100.00
2022-11-16T05:16:09.982Z,100.00
2022-11-16T05:18:38.726Z,100.00
2022-11-16T05:21:06.894Z,100.00
2022-11-16T05:23:56.458Z,100.00
2022-11-16T05:26:29.075Z,100.00
2022-11-16T05:28:57.748Z,100.00
2022-11-16T05:31:26.030Z,100.00
2022-11-16T05:33:54.467Z,100.00
2022-11-16T05:36:22.841Z,100.00
2022-11-16T05:38:56.123Z,100.00
2022-11-16T05:41:28.677Z,100.00
2022-11-16T05:43:58.010Z,100.00
2022-11-16T05:46:26.729Z,100.00
2022-11-16T05:48:57.706Z,100.00
2022-11-16T05:51:26.809Z,100.00
2022-11-16T05:53:56.256Z,100.00
2022-11-16T05:56:25.364Z,100.00
2022-11-16T05:58:57.108Z,100.00
2022-11-16T06:01:26.549Z,100.00
2022-11-16T06:03:55.516Z,100.00
2022-11-16T06:06:23.851Z,100.00
2022-11-16T06:08:53.567Z,100.00
2022-11-16T06:11:29.069Z,100.00
2022-11-16T06:14:04.095Z,100.00
2022-11-16T06:16:33.041Z,100.00
2022-11-16T06:19:04.335Z,100.00
2022-11-16T06:21:32.971Z,100.00
2022-11-16T06:24:05.779Z,100.00
2022-11-16T06:26:34.316Z,100.00
2022-11-16T06:29:04.730Z,100.00
2022-11-16T06:31:34.446Z,100.00
2022-11-16T06:34:04.369Z,100.00
2022-11-16T06:36:32.653Z,100.00
2022-11-16T06:39:01.939Z,100.00
2022-11-16T06:41:36.590Z,100.00
2022-11-16T06:44:11.394Z,100.00
2022-11-16T06:46:44.561Z,100.00
2022-11-16T06:49:13.572Z,100.00
2022-11-16T06:51:41.886Z,100.00
2022-11-16T06:54:10.811Z,100.00
2022-11-16T06:56:39.501Z,100.00
2022-11-16T06:59:10.334Z,100.00
2022-11-16T07:01:38.817Z,100.00
2022-11-16T07:04:12.718Z,100.00
2022-11-16T07:06:44.772Z,100.00
2022-11-16T07:09:16.309Z,100.00
2022-11-16T07:11:45.365Z,100.00
2022-11-16T07:14:17.555Z,100.00
2022-11-16T07:16:46.118Z,100.00
2022-11-16T07:19:14.851Z,100.00
2022-11-16T07:21:44.778Z,100.00
2022-11-16T07:24:17.149Z,100.00
2022-11-16T07:26:45.555Z,100.00
2022-11-16T07:29:21.542Z,100.00
2022-11-16T07:32:09.388Z,100.00
2022-11-16T07:34:59.196Z,100.00
2022-11-16T07:37:28.313Z,100.00
2022-11-16T07:39:56.743Z,100.00
2022-11-16T07:42:26.188Z,100.00
2022-11-16T07:45:31.352Z,100.00
2022-11-16T07:48:06.922Z,100.00
2022-11-16T07:50:54.057Z,100.00
2022-11-16T07:53:24.262Z,100.00
2022-11-16T07:55:54.408Z,100.00
2022-11-16T07:58:24.415Z,100.00
2022-11-16T08:00:54.523Z,100.00
2022-11-16T08:03:24.830Z,99.68
2022-11-16T08:06:00.877Z,99.94
2022-11-16T08:08:31.212Z,99.94
2022-11-16T08:11:05.509Z,99.26
2022-11-16T08:13:36.983Z,99.62
2022-11-16T08:16:10.411Z,99.36
2022-11-16T08:18:42.049Z,99.11
2022-11-16T08:21:21.161Z,99.51
2022-11-16T08:24:08.201Z,99.23
2022-11-16T08:26:54.001Z,95.63
2022-11-16T08:29:32.398Z,96.03
2022-11-16T08:32:20.506Z,96.29
2022-11-16T08:34:56.206Z,96.13
2022-11-16T08:37:37.400Z,95.47
2022-11-16T08:40:25.936Z,95.04
2022-11-16T08:43:20.750Z,94.57
2022-11-16T08:46:13.568Z,94.71
2022-11-16T08:48:50.673Z,94.90
2022-11-16T08:51:32.006Z,94.31
2022-11-16T08:54:16.933Z,94.03
2022-11-16T08:56:49.833Z,94.65
2022-11-16T08:59:37.957Z,95.00
2022-11-16T09:02:16.832Z,93.55
2022-11-16T09:04:59.727Z,94.04
2022-11-16T09:07:40.106Z,93.39
2022-11-16T09:10:38.398Z,93.22
2022-11-16T09:13:18.848Z,93.15
2022-11-16T09:16:16.444Z,92.76
2022-11-16T09:18:56.574Z,92.97
2022-11-16T09:21:44.209Z,92.89
2022-11-16T09:24:22.148Z,92.81
2022-11-16T09:27:11.627Z,91.70
2022-11-16T09:29:52.199Z,90.99
2022-11-16T09:32:21.118Z,92.36
2022-11-16T09:34:49.570Z,91.85
2022-11-16T09:37:19.299Z,90.08
2022-11-16T09:39:47.535Z,89.71
2022-11-16T09:42:34.692Z,88.81
2022-11-16T09:45:08.419Z,87.98
2022-11-16T09:47:50.143Z,86.84
2022-11-16T09:50:31.287Z,88.56
2022-11-16T09:53:10.939Z,89.39
2022-11-16T09:55:46.627Z,89.51
2022-11-16T09:58:19.304Z,89.39
2022-11-16T10:00:56.061Z,88.72
2022-11-16T10:03:27.308Z,88.86
2022-11-16T10:06:03.865Z,89.32
2022-11-16T10:08:46.974Z,88.67
2022-11-16T10:11:39.924Z,88.56
2022-11-16T10:14:33.769Z,88.05
2022-11-16T10:17:07.820Z,88.46
2022-11-16T10:19:46.721Z,87.74
2022-11-16T10:22:34.202Z,88.82
2022-11-16T10:25:11.822Z,90.51
2022-11-16T10:28:08.625Z,89.17
2022-11-16T10:30:44.476Z,88.46
2022-11-16T10:33:18.289Z,87.96
2022-11-16T10:35:52.111Z,88.47
2022-11-16T10:38:26.633Z,87.64
2022-11-16T10:41:04.622Z,87.68
2022-11-16T10:43:34.623Z,88.02
2022-11-16T10:46:13.662Z,88.11
2022-11-16T10:48:54.994Z,88.35
2022-11-16T10:51:23.331Z,88.65
2022-11-16T10:53:53.183Z,87.41
2022-11-16T10:56:27.114Z,85.40
2022-11-16T10:58:59.332Z,84.98
2022-11-16T11:01:35.940Z,84.15
2022-11-16T11:04:20.955Z,83.22
2022-11-16T11:06:52.625Z,82.93
2022-11-16T11:09:30.468Z,83.21
2022-11-16T11:12:34.036Z,81.20
2022-11-16T11:15:13.365Z,81.05
2022-11-16T11:17:44.641Z,81.42
2022-11-16T11:20:24.299Z,81.86
2022-11-16T11:22:56.050Z,81.44
2022-11-16T11:25:27.187Z,82.12
2022-11-16T11:28:07.726Z,81.87
2022-11-16T11:30:37.107Z,81.55
2022-11-16T11:33:12.815Z,81.03
2022-11-16T11:35:41.642Z,80.93
2022-11-16T11:38:16.561Z,80.02
2022-11-16T11:40:58.930Z,78.47
2022-11-16T11:43:30.238Z,77.74
2022-11-16T11:46:07.169Z,77.77
2022-11-16T11:48:47.916Z,78.87
2022-11-16T11:51:23.467Z,78.43
2022-11-16T11:53:57.008Z,78.88
2022-11-16T11:56:26.284Z,79.80
2022-11-16T11:58:56.935Z,81.02
2022-11-16T12:01:55.846Z,82.35
2022-11-16T12:05:25.304Z,82.57
2022-11-16T12:08:21.641Z,83.32
2022-11-16T12:10:54.149Z,84.26
2022-11-16T12:13:48.379Z,84.65
2022-11-16T12:16:23.586Z,84.53
2022-11-16T12:19:27.221Z,83.97
2022-11-16T12:22:10.539Z,84.04
2022-11-16T12:24:54.522Z,83.51
2022-11-16T12:27:35.451Z,83.40
2022-11-16T12:30:12.718Z,81.96
2022-11-16T12:33:06.984Z,81.73
2022-11-16T12:35:50.339Z,81.00
2022-11-16T12:38:43.098Z,80.40
2022-11-16T12:41:58.295Z,79.96
2022-11-16T12:44:46.901Z,79.76
2022-11-16T12:47:29.917Z,79.47
2022-11-16T12:50:21.658Z,80.40
2022-11-16T12:53:20.405Z,81.12
2022-11-16T12:55:58.718Z,81.19
2022-11-16T12:58:57.131Z,80.42
2022-11-16T13:01:34.292Z,81.04
2022-11-16T13:04:11.507Z,79.50
2022-11-16T13:06:48.678Z,77.91
2022-11-16T13:09:21.627Z,77.65
2022-11-16T13:11:54.199Z,77.68
2022-11-16T13:14:26.904Z,77.67
2022-11-16T13:16:55.789Z,77.53
2022-11-16T13:19:24.906Z,77.18
2022-11-16T13:22:03.252Z,78.06
2022-11-16T13:24:46.823Z,77.46
2022-11-16T13:27:37.504Z,77.09
2022-11-16T13:30:16.219Z,77.17
2022-11-16T13:33:14.249Z,76.56
2022-11-16T13:35:42.793Z,73.82
2022-11-16T13:38:13.831Z,72.99
2022-11-16T13:40:42.795Z,72.79
2022-11-16T13:43:21.054Z,73.41
2022-11-16T13:45:57.779Z,72.68
2022-11-16T13:48:33.649Z,71.22
2022-11-16T13:51:04.964Z,70.15
2022-11-16T13:54:37.845Z,70.07
2022-11-16T13:56:29.516Z,70.32
2022-11-16T13:58:59.485Z,70.82
2022-11-16T14:01:56.614Z,70.83
2022-11-16T14:04:56.287Z,71.21
2022-11-16T14:07:43.332Z,72.62
2022-11-16T14:10:52.408Z,72.34
2022-11-16T14:13:40.094Z,71.61
2022-11-16T14:16:48.408Z,71.37
2022-11-16T14:19:56.004Z,70.91
2022-11-16T14:22:47.625Z,69.56
2022-11-16T14:25:44.057Z,68.35
2022-11-16T14:28:38.932Z,65.97
2022-11-16T14:31:19.137Z,64.35
2022-11-16T14:33:55.848Z,64.06
2022-11-16T14:36:42.973Z,63.16
2022-11-16T14:39:37.323Z,63.43
2022-11-16T14:42:18.073Z,63.18
2022-11-16T14:44:47.920Z,62.14
2022-11-16T14:47:25.453Z,61.55
2022-11-16T14:49:55.701Z,51.63
2022-11-16T14:52:36.874Z,52.87
2022-11-16T14:55:09.768Z,52.65
2022-11-16T14:57:39.695Z,50.75
2022-11-16T15:00:13.745Z,51.38
2022-11-16T15:02:46.906Z,52.38
2022-11-16T15:05:22.533Z,52.40
2022-11-16T15:07:54.514Z,52.35
2022-11-16T15:10:27.464Z,53.91
2022-11-16T15:12:59.002Z,51.90
2022-11-16T15:15:32.559Z,51.86
2022-11-16T15:18:12.280Z,52.50
2022-11-16T15:20:51.140Z,53.06
2022-11-16T15:23:23.876Z,54.60
2022-11-16T15:25:59.285Z,55.24
2022-11-16T15:28:32.835Z,55.58
2022-11-16T15:31:07.487Z,55.81
2022-11-16T15:33:40.663Z,54.96
2022-11-16T15:36:26.056Z,54.84
2022-11-16T15:38:56.570Z,55.35
2022-11-16T15:41:27.924Z,55.35
2022-11-16T15:44:16.852Z,56.92
2022-11-16T15:46:49.903Z,56.72
2022-11-16T15:49:30.150Z,57.61
2022-11-16T15:52:00.196Z,58.12
2022-11-16T15:54:54.467Z,58.20
2022-11-16T15:57:25.282Z,58.11
2022-11-16T15:59:57.828Z,58.08
2022-11-16T16:02:29.347Z,58.55
2022-11-16T16:05:08.588Z,59.22
2022-11-16T16:07:38.565Z,59.82
2022-11-16T16:10:23.860Z,59.63
2022-11-16T16:12:53.907Z,60.24
2022-11-16T16:15:27.296Z,60.31
2022-11-16T16:17:56.141Z,60.58
2022-11-16T16:20:27.231Z,61.02
2022-11-16T16:23:06.890Z,61.39
2022-11-16T16:25:37.037Z,61.85
2022-11-16T16:28:06.208Z,62.22
2022-11-16T16:30:36.021Z,62.58
2022-11-16T16:33:04.686Z,62.77
2022-11-16T16:35:33.054Z,63.13
2022-11-16T16:38:02.484Z,62.80
2022-11-16T16:40:31.230Z,62.68
2022-11-16T16:42:59.510Z,62.88
2022-11-16T16:45:37.253Z,62.24
2022-11-16T16:48:06.772Z,62.33
2022-11-16T16:50:35.158Z,61.99
2022-11-16T16:53:03.509Z,61.67
2022-11-16T16:55:36.949Z,61.76
2022-11-16T16:58:06.419Z,61.63
2022-11-16T17:00:36.308Z,62.10
2022-11-16T17:03:05.004Z,62.47
2022-11-16T17:05:34.132Z,62.43
2022-11-16T17:08:02.920Z,62.92
2022-11-16T17:10:31.422Z,63.27
2022-11-16T17:13:02.368Z,63.73
2022-11-16T17:15:30.702Z,64.00
2022-11-16T17:18:00.783Z,64.07
2022-11-16T17:20:29.233Z,64.14
2022-11-16T17:22:58.023Z,64.34
2022-11-16T17:25:26.454Z,64.42
2022-11-16T17:27:54.710Z,64.53
2022-11-16T17:30:23.022Z,64.71
2022-11-16T17:32:51.466Z,64.87
2022-11-16T17:35:21.170Z,65.02
2022-11-16T17:37:49.857Z,65.64
2022-11-16T17:40:18.343Z,65.03
2022-11-16T17:42:46.616Z,64.85
2022-11-16T17:45:15.327Z,64.71
2022-11-16T17:47:44.004Z,64.71
2022-11-16T17:50:12.436Z,64.87
2022-11-16T17:52:42.116Z,65.04
2022-11-16T17:55:10.767Z,66.22
2022-11-16T17:57:39.021Z,67.15
2022-11-16T18:00:09.490Z,67.22
2022-11-16T18:02:38.050Z,67.42
2022-11-16T18:05:07.240Z,67.94
2022-11-16T18:07:36.489Z,68.24
2022-11-16T18:10:08.087Z,68.92
2022-11-16T18:12:38.451Z,69.40
2022-11-16T18:15:27.596Z,69.89
2022-11-16T18:17:57.285Z,69.84
2022-11-16T18:20:27.588Z,69.65
2022-11-16T18:22:56.299Z,69.26
2022-11-16T18:25:26.380Z,69.02
2022-11-16T18:27:55.358Z,68.81
2022-11-16T18:30:25.080Z,68.63
2022-11-16T18:32:53.559Z,68.53
2022-11-16T18:35:21.971Z,68.46
2022-11-16T18:37:50.462Z,68.58
2022-11-16T18:40:19.097Z,68.65
2022-11-16T18:42:48.819Z,69.32
2022-11-16T18:45:17.275Z,70.00
2022-11-16T18:47:45.985Z,70.55
2022-11-16T18:50:20.097Z,70.68
2022-11-16T18:52:51.039Z,70.16
2022-11-16T18:55:19.566Z,70.43
2022-11-16T18:57:49.405Z,70.17
2022-11-16T19:00:20.353Z,69.97
2022-11-16T19:02:48.692Z,70.17
2022-11-16T19:05:17.269Z,70.79
2022-11-16T19:07:45.935Z,71.58
2022-11-16T19:10:14.787Z,71.79
2022-11-16T19:12:43.421Z,72.29
2022-11-16T19:15:13.384Z,72.08
2022-11-16T19:18:06.354Z,72.42
2022-11-16T19:20:30.235Z,72.42
2022-11-16T19:22:59.114Z,73.14
2022-11-16T19:25:28.025Z,73.36
2022-11-16T19:27:56.503Z,73.55
2022-11-16T19:30:26.348Z,73.56
2022-11-16T19:32:57.974Z,74.04
2022-11-16T19:35:26.540Z,73.93
2022-11-16T19:37:54.913Z,73.45
2022-11-16T19:40:25.187Z,73.14
2022-11-16T19:42:54.622Z,73.05
2022-11-16T19:45:23.034Z,73.56
2022-11-16T19:47:52.993Z,73.85
2022-11-16T19:50:23.622Z,74.30
2022-11-16T19:52:51.983Z,74.25
2022-11-16T19:55:20.539Z,74.60
2022-11-16T19:57:48.937Z,74.99
2022-11-16T20:00:18.594Z,74.73
2022-11-16T20:02:46.936Z,74.83
2022-11-16T20:05:16.748Z,75.37
2022-11-16T20:07:45.041Z,75.97
2022-11-16T20:10:13.493Z,76.38
2022-11-16T20:12:42.032Z,76.27
2022-11-16T20:15:11.252Z,76.25
2022-11-16T20:17:39.792Z,76.98
2022-11-16T20:20:09.579Z,77.04
2022-11-16T20:22:39.438Z,76.73
2022-11-16T20:25:08.859Z,76.97
2022-11-16T20:27:37.466Z,76.60
2022-11-16T20:30:09.772Z,76.57
2022-11-16T20:32:38.331Z,75.86
2022-11-16T20:35:07.199Z,76.25
2022-11-16T20:37:36.608Z,75.84
2022-11-16T20:40:08.276Z,76.68
2022-11-16T20:42:37.060Z,76.38
2022-11-16T20:45:06.802Z,75.79
2022-11-16T20:47:35.165Z,76.00
2022-11-16T20:50:04.152Z,76.31
2022-11-16T20:52:32.437Z,77.22
2022-11-16T20:55:00.675Z,77.75
2022-11-16T20:57:30.601Z,78.37
2022-11-16T20:59:58.904Z,78.83
2022-11-16T21:02:27.793Z,78.92
2022-11-16T21:05:00.042Z,79.55
2022-11-16T21:07:29.766Z,79.37
2022-11-16T21:10:15.834Z,79.34
2022-11-16T21:13:02.903Z,79.49
2022-11-16T21:15:31.287Z,79.68
2022-11-16T21:17:59.767Z,79.84
2022-11-16T21:20:28.712Z,79.60
2022-11-16T21:22:57.459Z,79.55
2022-11-16T21:25:25.822Z,79.33
2022-11-16T21:27:56.952Z,79.60
2022-11-16T21:30:25.391Z,79.52
2022-11-16T21:32:53.700Z,79.48
2022-11-16T21:35:23.460Z,79.71
2022-11-16T21:38:02.870Z,80.04
2022-11-16T21:40:31.133Z,80.54
2022-11-16T21:43:00.924Z,80.60
2022-11-16T21:45:29.577Z,80.44
2022-11-16T21:47:58.237Z,80.17
2022-11-16T21:50:33.727Z,80.19
2022-11-16T21:53:02.143Z,80.35
2022-11-16T21:55:30.682Z,80.74
2022-11-16T21:58:00.685Z,80.27
2022-11-16T22:00:29.408Z,80.63
2022-11-16T22:02:57.709Z,80.82
2022-11-16T22:05:43.782Z,81.49
2022-11-16T22:08:12.771Z,81.12
2022-11-16T22:10:41.232Z,81.47
2022-11-16T22:13:11.002Z,81.80
2022-11-16T22:15:39.284Z,81.85
2022-11-16T22:18:07.680Z,81.99
2022-11-16T22:20:36.060Z,82.06
2022-11-16T22:23:04.888Z,82.81
2022-11-16T22:25:33.312Z,82.95
2022-11-16T22:30:52.183Z,83.30
2022-11-16T22:33:21.329Z,83.01
2022-11-16T22:35:49.714Z,83.49
2022-11-16T22:38:17.940Z,83.33
2022-11-16T22:40:51.569Z,83.28
2022-11-16T22:43:20.177Z,83.05
2022-11-16T22:45:48.953Z,82.82
2022-11-16T22:48:18.945Z,82.53
2022-11-16T22:50:47.359Z,82.78
2022-11-16T22:53:15.979Z,83.18
2022-11-16T22:55:44.677Z,83.42
2022-11-16T22:58:13.118Z,83.51
2022-11-16T23:00:42.283Z,83.25
2022-11-16T23:03:10.975Z,83.31
2022-11-16T23:05:40.635Z,83.66
2022-11-16T23:08:09.041Z,83.38
2022-11-16T23:10:57.472Z,83.54
2022-11-16T23:13:42.473Z,83.72
2022-11-16T23:16:10.727Z,83.63
2022-11-16T23:18:39.023Z,83.90
2022-11-16T23:21:27.270Z,84.24
2022-11-16T23:24:13.343Z,84.01
2022-11-16T23:26:59.525Z,84.13
2022-11-16T23:29:27.858Z,83.68
2022-11-16T23:31:56.157Z,83.75
2022-11-16T23:34:24.443Z,84.17
2022-11-16T23:36:54.037Z,83.94
2022-11-16T23:39:22.316Z,84.58
2022-11-16T23:42:07.996Z,84.36
2022-11-16T23:44:36.304Z,84.51
2022-11-16T23:47:04.836Z,84.90
2022-11-16T23:49:33.118Z,84.90
2022-11-16T23:52:02.710Z,84.61
2022-11-16T23:54:30.990Z,85.15
2022-11-16T23:56:59.562Z,85.08
2022-11-16T23:59:27.908Z,85.21
